sensor_id;sensor_type;location;lat;lon;timestamp;temperature;humidity
43607;DHT22;29197;44.788;10.366;2023-08-01T03:09:37;25.50;99.90
43607;DHT22;29197;44.788;10.366;2023-08-01T03:46:14;24.70;99.90
43607;DHT22;29197;44.788;10.366;2023-08-01T03:49:03;24.40;99.90
43607;DHT22;29197;44.788;10.366;2023-08-01T03:51:51;24.30;99.90
43607;DHT22;29197;44.788;10.366;2023-08-01T03:54:41;24.00;99.90
43607;DHT22;29197;44.788;10.366;2023-08-01T03:57:30;24.10;99.90
43607;DHT22;29197;44.788;10.366;2023-08-01T04:00:21;24.30;99.90
43607;DHT22;29197;44.788;10.366;2023-08-01T04:03:10;24.40;99.90
43607;DHT22;29197;44.788;10.366;2023-08-01T04:05:58;24.30;99.90
43607;DHT22;29197;44.788;10.366;2023-08-01T04:08:47;24.40;99.90
43607;DHT22;29197;44.788;10.366;2023-08-01T04:11:37;24.50;99.90
43607;DHT22;29197;44.788;10.366;2023-08-01T04:14:25;24.60;99.90
43607;DHT22;29197;44.788;10.366;2023-08-01T04:17:14;24.70;99.90
43607;DHT22;29197;44.788;10.366;2023-08-01T04:20:03;24.70;99.90
43607;DHT22;29197;44.788;10.366;2023-08-01T04:22:52;24.70;99.90
43607;DHT22;29197;44.788;10.366;2023-08-01T04:25:41;24.80;99.90
43607;DHT22;29197;44.788;10.366;2023-08-01T04:28:31;24.80;99.90
43607;DHT22;29197;44.788;10.366;2023-08-01T04:31:20;24.40;99.90
43607;DHT22;29197;44.788;10.366;2023-08-01T04:34:09;24.30;99.90
43607;DHT22;29197;44.788;10.366;2023-08-01T04:36:57;24.30;99.90
43607;DHT22;29197;44.788;10.366;2023-08-01T04:39:46;24.20;99.90
43607;DHT22;29197;44.788;10.366;2023-08-01T04:45:25;24.10;99.90
43607;DHT22;29197;44.788;10.366;2023-08-01T04:51:02;24.80;99.90
43607;DHT22;29197;44.788;10.366;2023-08-01T04:53:51;25.10;99.90
43607;DHT22;29197;44.788;10.366;2023-08-01T04:56:39;25.20;99.90
43607;DHT22;29197;44.788;10.366;2023-08-01T04:59:28;25.30;99.90
43607;DHT22;29197;44.788;10.366;2023-08-01T05:02:18;25.50;99.90
43607;DHT22;29197;44.788;10.366;2023-08-01T05:05:07;25.60;99.90
43607;DHT22;29197;44.788;10.366;2023-08-01T05:07:55;25.60;99.90
43607;DHT22;29197;44.788;10.366;2023-08-01T05:13:33;26.40;99.90
43607;DHT22;29197;44.788;10.366;2023-08-01T05:16:21;25.80;99.90
43607;DHT22;29197;44.788;10.366;2023-08-01T05:19:11;25.90;99.90
43607;DHT22;29197;44.788;10.366;2023-08-01T05:22:00;25.90;99.90
43607;DHT22;29197;44.788;10.366;2023-08-01T05:27:37;26.00;99.90
43607;DHT22;29197;44.788;10.366;2023-08-01T05:30:26;26.10;99.90
43607;DHT22;29197;44.788;10.366;2023-08-01T05:33:14;26.10;99.90
43607;DHT22;29197;44.788;10.366;2023-08-01T05:36:05;26.10;99.90
43607;DHT22;29197;44.788;10.366;2023-08-01T05:38:54;26.20;99.90
43607;DHT22;29197;44.788;10.366;2023-08-01T05:41:42;26.30;99.90
43607;DHT22;29197;44.788;10.366;2023-08-01T05:44:31;26.20;99.90
43607;DHT22;29197;44.788;10.366;2023-08-01T05:47:19;26.40;99.90
43607;DHT22;29197;44.788;10.366;2023-08-01T05:50:10;26.60;99.90
43607;DHT22;29197;44.788;10.366;2023-08-01T05:53:00;26.20;99.90
43607;DHT22;29197;44.788;10.366;2023-08-01T05:55:49;26.30;99.90
43607;DHT22;29197;44.788;10.366;2023-08-01T06:01:26;26.60;99.90
43607;DHT22;29197;44.788;10.366;2023-08-01T06:04:15;26.60;99.90
43607;DHT22;29197;44.788;10.366;2023-08-01T06:07:04;26.60;99.90
43607;DHT22;29197;44.788;10.366;2023-08-01T06:09:55;26.60;99.90
43607;DHT22;29197;44.788;10.366;2023-08-01T06:12:44;26.60;99.90
43607;DHT22;29197;44.788;10.366;2023-08-01T06:15:32;26.70;99.90
43607;DHT22;29197;44.788;10.366;2023-08-01T06:18:21;26.70;99.90
43607;DHT22;29197;44.788;10.366;2023-08-01T06:21:10;26.70;99.90
43607;DHT22;29197;44.788;10.366;2023-08-01T06:23:58;26.80;99.90
43607;DHT22;29197;44.788;10.366;2023-08-01T09:41:24;29.40;99.90
43607;DHT22;29197;44.788;10.366;2023-08-01T09:44:15;29.50;99.90
43607;DHT22;29197;44.788;10.366;2023-08-01T09:47:05;29.60;99.90
43607;DHT22;29197;44.788;10.366;2023-08-01T09:49:56;29.70;99.90
43607;DHT22;29197;44.788;10.366;2023-08-01T09:52:45;29.60;99.90
43607;DHT22;29197;44.788;10.366;2023-08-01T09:55:40;29.70;99.90
43607;DHT22;29197;44.788;10.366;2023-08-01T09:58:33;29.50;99.90
43607;DHT22;29197;44.788;10.366;2023-08-01T10:01:23;29.40;99.90
43607;DHT22;29197;44.788;10.366;2023-08-01T10:04:12;29.40;99.90
43607;DHT22;29197;44.788;10.366;2023-08-01T10:07:08;29.50;99.90
43607;DHT22;29197;44.788;10.366;2023-08-01T10:09:58;29.50;99.90
43607;DHT22;29197;44.788;10.366;2023-08-01T10:12:47;29.50;99.90
43607;DHT22;29197;44.788;10.366;2023-08-01T10:15:36;29.60;99.90
43607;DHT22;29197;44.788;10.366;2023-08-01T10:18:25;29.60;99.90
43607;DHT22;29197;44.788;10.366;2023-08-01T10:21:15;29.80;99.90
43607;DHT22;29197;44.788;10.366;2023-08-01T11:54:44;31.60;99.90
43607;DHT22;29197;44.788;10.366;2023-08-01T11:57:33;31.90;99.90
43607;DHT22;29197;44.788;10.366;2023-08-01T12:00:23;31.90;99.90
43607;DHT22;29197;44.788;10.366;2023-08-01T12:03:11;31.90;99.90
43607;DHT22;29197;44.788;10.366;2023-08-01T12:34:36;31.50;99.90
43607;DHT22;29197;44.788;10.366;2023-08-01T12:40:15;31.60;99.90
43607;DHT22;29197;44.788;10.366;2023-08-01T12:43:03;31.50;99.90
43607;DHT22;29197;44.788;10.366;2023-08-01T12:45:52;31.50;99.90
43607;DHT22;29197;44.788;10.366;2023-08-01T13:14:07;30.80;99.90
43607;DHT22;29197;44.788;10.366;2023-08-01T13:16:56;30.80;99.90
43607;DHT22;29197;44.788;10.366;2023-08-01T13:20:07;30.90;99.90
43607;DHT22;29197;44.788;10.366;2023-08-01T13:22:56;30.90;99.90
43607;DHT22;29197;44.788;10.366;2023-08-01T13:25:44;31.10;99.90
43607;DHT22;29197;44.788;10.366;2023-08-01T13:31:25;31.50;99.90
43607;DHT22;29197;44.788;10.366;2023-08-01T13:34:14;31.80;99.90
43607;DHT22;29197;44.788;10.366;2023-08-01T13:37:04;31.70;99.90
43607;DHT22;29197;44.788;10.366;2023-08-01T13:39:53;31.70;99.90
43607;DHT22;29197;44.788;10.366;2023-08-01T13:42:41;31.70;99.90
43607;DHT22;29197;44.788;10.366;2023-08-01T13:45:30;31.80;99.90
43607;DHT22;29197;44.788;10.366;2023-08-01T13:48:21;31.90;99.90
43607;DHT22;29197;44.788;10.366;2023-08-01T13:51:10;31.90;99.90
43607;DHT22;29197;44.788;10.366;2023-08-01T14:05:18;31.50;99.90
43607;DHT22;29197;44.788;10.366;2023-08-01T14:08:06;31.90;99.90
43607;DHT22;29197;44.788;10.366;2023-08-01T14:10:55;31.70;99.90
43607;DHT22;29197;44.788;10.366;2023-08-01T14:16:32;31.50;99.90
43607;DHT22;29197;44.788;10.366;2023-08-01T14:22:11;31.30;99.90
43607;DHT22;29197;44.788;10.366;2023-08-01T14:24:59;31.20;99.90
43607;DHT22;29197;44.788;10.366;2023-08-01T14:27:48;31.30;99.90
43607;DHT22;29197;44.788;10.366;2023-08-01T14:33:25;31.50;99.90
43607;DHT22;29197;44.788;10.366;2023-08-01T14:39:05;32.40;99.90
43607;DHT22;29197;44.788;10.366;2023-08-01T14:42:08;32.10;99.90
43607;DHT22;29197;44.788;10.366;2023-08-01T14:44:56;31.70;99.90
43607;DHT22;29197;44.788;10.366;2023-08-01T14:47:45;31.50;99.90
43607;DHT22;29197;44.788;10.366;2023-08-01T14:50:34;31.20;99.90
43607;DHT22;29197;44.788;10.366;2023-08-01T14:53:22;31.20;99.90
43607;DHT22;29197;44.788;10.366;2023-08-01T14:56:12;31.20;99.90
43607;DHT22;29197;44.788;10.366;2023-08-01T15:01:50;31.20;99.90
43607;DHT22;29197;44.788;10.366;2023-08-01T15:04:39;31.30;99.90
43607;DHT22;29197;44.788;10.366;2023-08-01T15:07:27;31.30;99.90
43607;DHT22;29197;44.788;10.366;2023-08-01T15:13:06;31.60;99.90
43607;DHT22;29197;44.788;10.366;2023-08-01T15:15:55;31.70;99.90
43607;DHT22;29197;44.788;10.366;2023-08-01T15:18:44;31.50;99.90
43607;DHT22;29197;44.788;10.366;2023-08-01T15:21:32;31.60;99.90
43607;DHT22;29197;44.788;10.366;2023-08-01T15:24:21;31.60;99.90
43607;DHT22;29197;44.788;10.366;2023-08-01T15:27:10;31.70;99.90
43607;DHT22;29197;44.788;10.366;2023-08-01T15:30:00;31.80;99.90
43607;DHT22;29197;44.788;10.366;2023-08-01T15:32:49;31.80;99.90
43607;DHT22;29197;44.788;10.366;2023-08-01T15:35:37;31.60;99.90
43607;DHT22;29197;44.788;10.366;2023-08-01T15:38:26;31.60;99.90
43607;DHT22;29197;44.788;10.366;2023-08-01T15:41:14;31.60;99.90
43607;DHT22;29197;44.788;10.366;2023-08-01T15:44:03;31.50;99.90
43607;DHT22;29197;44.788;10.366;2023-08-01T15:46:53;31.30;99.90
43607;DHT22;29197;44.788;10.366;2023-08-01T15:52:30;31.00;99.90
43607;DHT22;29197;44.788;10.366;2023-08-01T15:55:19;30.80;99.90
43607;DHT22;29197;44.788;10.366;2023-08-01T15:58:07;31.00;99.90
43607;DHT22;29197;44.788;10.366;2023-08-01T16:00:56;31.10;99.90
43607;DHT22;29197;44.788;10.366;2023-08-01T16:06:35;30.90;99.90
43607;DHT22;29197;44.788;10.366;2023-08-01T16:09:24;31.00;99.90
43607;DHT22;29197;44.788;10.366;2023-08-01T16:12:13;31.10;99.90
43607;DHT22;29197;44.788;10.366;2023-08-01T16:15:01;30.90;99.90
43607;DHT22;29197;44.788;10.366;2023-08-01T16:34:48;30.70;99.90
43607;DHT22;29197;44.788;10.366;2023-08-01T16:37:38;30.40;99.90
43607;DHT22;29197;44.788;10.366;2023-08-01T16:40:27;30.30;99.90
43607;DHT22;29197;44.788;10.366;2023-08-01T16:43:15;30.30;99.90
43607;DHT22;29197;44.788;10.366;2023-08-01T16:46:04;30.30;99.90
43607;DHT22;29197;44.788;10.366;2023-08-01T16:48:52;30.20;99.90
43607;DHT22;29197;44.788;10.366;2023-08-01T16:51:43;30.30;99.90
43607;DHT22;29197;44.788;10.366;2023-08-01T16:54:32;30.40;99.90
43607;DHT22;29197;44.788;10.366;2023-08-01T16:57:21;30.30;99.90
43607;DHT22;29197;44.788;10.366;2023-08-01T17:00:11;30.30;99.90
43607;DHT22;29197;44.788;10.366;2023-08-01T17:05:49;30.00;99.90
43607;DHT22;29197;44.788;10.366;2023-08-01T17:08:38;30.00;99.90
43607;DHT22;29197;44.788;10.366;2023-08-01T17:11:28;30.00;99.90
43607;DHT22;29197;44.788;10.366;2023-08-01T17:14:16;29.90;99.90
43607;DHT22;29197;44.788;10.366;2023-08-01T17:17:05;29.90;99.90
43607;DHT22;29197;44.788;10.366;2023-08-01T17:19:54;29.80;99.90
43607;DHT22;29197;44.788;10.366;2023-08-01T17:22:43;29.70;99.90
43607;DHT22;29197;44.788;10.366;2023-08-01T17:25:32;29.70;99.90
43607;DHT22;29197;44.788;10.366;2023-08-01T21:34:23;26.60;99.90
43607;DHT22;29197;44.788;10.366;2023-08-01T21:37:12;26.60;99.90
43607;DHT22;29197;44.788;10.366;2023-08-01T21:40:01;26.60;99.90
43607;DHT22;29197;44.788;10.366;2023-08-01T21:42:51;26.60;99.90
43607;DHT22;29197;44.788;10.366;2023-08-01T21:45:40;26.70;99.90
43607;DHT22;29197;44.788;10.366;2023-08-01T21:48:28;26.60;99.90
43607;DHT22;29197;44.788;10.366;2023-08-01T21:51:17;26.60;99.90
43607;DHT22;29197;44.788;10.366;2023-08-01T21:54:05;26.60;99.90
43607;DHT22;29197;44.788;10.366;2023-08-01T21:56:55;26.40;99.90
43607;DHT22;29197;44.788;10.366;2023-08-01T21:59:45;26.30;99.90
43607;DHT22;29197;44.788;10.366;2023-08-01T22:02:33;26.20;99.90
43607;DHT22;29197;44.788;10.366;2023-08-01T22:05:22;26.30;99.90
43607;DHT22;29197;44.788;10.366;2023-08-01T22:08:10;26.30;99.90
43607;DHT22;29197;44.788;10.366;2023-08-01T22:10:59;26.40;99.90
43607;DHT22;29197;44.788;10.366;2023-08-01T22:13:48;26.40;99.90
43607;DHT22;29197;44.788;10.366;2023-08-01T22:16:37;26.40;99.90
43607;DHT22;29197;44.788;10.366;2023-08-01T22:19:26;26.40;99.90
43607;DHT22;29197;44.788;10.366;2023-08-01T22:22:15;26.40;99.90
43607;DHT22;29197;44.788;10.366;2023-08-01T22:25:11;26.40;99.90
43607;DHT22;29197;44.788;10.366;2023-08-01T22:27:59;26.50;99.90
43607;DHT22;29197;44.788;10.366;2023-08-01T22:30:48;26.50;99.90
43607;DHT22;29197;44.788;10.366;2023-08-01T22:33:39;26.40;99.90
43607;DHT22;29197;44.788;10.366;2023-08-01T22:36:27;26.40;99.90
43607;DHT22;29197;44.788;10.366;2023-08-01T22:39:16;26.40;99.90
43607;DHT22;29197;44.788;10.366;2023-08-01T22:42:05;26.30;99.90
43607;DHT22;29197;44.788;10.366;2023-08-01T22:44:53;26.20;99.90
43607;DHT22;29197;44.788;10.366;2023-08-01T22:47:42;26.20;99.90
43607;DHT22;29197;44.788;10.366;2023-08-01T22:50:32;26.20;99.90
43607;DHT22;29197;44.788;10.366;2023-08-01T22:53:21;26.20;99.90
43607;DHT22;29197;44.788;10.366;2023-08-01T22:56:10;26.20;99.90
43607;DHT22;29197;44.788;10.366;2023-08-01T22:58:58;26.00;99.90
43607;DHT22;29197;44.788;10.366;2023-08-01T23:01:47;26.10;99.90
43607;DHT22;29197;44.788;10.366;2023-08-01T23:04:35;26.20;99.90
43607;DHT22;29197;44.788;10.366;2023-08-01T23:07:25;26.10;99.90
43607;DHT22;29197;44.788;10.366;2023-08-01T23:10:14;26.10;99.90
43607;DHT22;29197;44.788;10.366;2023-08-01T23:13:04;26.20;99.90
43607;DHT22;29197;44.788;10.366;2023-08-01T23:15:53;26.20;99.90
43607;DHT22;29197;44.788;10.366;2023-08-01T23:18:42;26.20;99.90
43607;DHT22;29197;44.788;10.366;2023-08-01T23:21:31;26.20;99.90
43607;DHT22;29197;44.788;10.366;2023-08-01T23:24:21;26.10;99.90
43607;DHT22;29197;44.788;10.366;2023-08-01T23:27:10;26.00;99.90
43607;DHT22;29197;44.788;10.366;2023-08-01T23:29:58;26.00;99.90
43607;DHT22;29197;44.788;10.366;2023-08-01T23:32:47;26.10;99.90
43607;DHT22;29197;44.788;10.366;2023-08-01T23:35:36;26.10;99.90
43607;DHT22;29197;44.788;10.366;2023-08-01T23:38:24;26.10;99.90
